Time,TemperatureF,DewpointF,PressureIn,WindDirection,WindDirectionDegrees,WindSpeedMPH,WindSpeedGustMPH,Humidity,HourlyPrecipIn,Conditions,Clouds,dailyrainin,SoftwareType,DateUTC
2013-04-20 00:03:00,60.6,18.2,29.29,SSW,211,0.0,4.0,19,0.00,,---,0.00,VWS V14.01,2013-04-20 07:03:00,
2013-04-20 00:08:00,59.0,16.8,29.29,SSW,211,0.0,0.0,19,0.00,,---,0.00,VWS V14.01,2013-04-20 07:08:00,
2013-04-20 00:13:00,58.3,16.2,29.29,SW,218,0.0,0.0,19,0.00,,---,0.00,VWS V14.01,2013-04-20 07:13:00,
2013-04-20 00:19:00,56.5,14.7,29.29,SW,218,0.0,0.0,19,0.00,,---,0.00,VWS V14.01,2013-04-20 07:19:00,
2013-04-20 00:24:00,55.9,17.7,29.29,SW,218,0.0,0.0,22,0.00,,---,0.00,VWS V14.01,2013-04-20 07:24:00,
2013-04-20 00:29:00,55.2,20.0,29.29,SW,218,0.0,0.0,25,0.00,,---,0.00,VWS V14.01,2013-04-20 07:29:00,
2013-04-20 00:35:00,54.5,20.3,29.32,SW,218,0.0,0.0,26,0.00,,---,0.00,VWS V14.01,2013-04-20 07:35:00,
2013-04-20 00:40:00,54.3,21.1,29.32,SW,218,0.0,0.0,27,0.00,,---,0.00,VWS V14.01,2013-04-20 07:40:00,
2013-04-20 00:45:00,54.3,21.9,29.32,SW,218,0.0,0.0,28,0.00,,---,0.00,VWS V14.01,2013-04-20 07:45:00,
2013-04-20 00:50:00,54.1,21.8,29.32,SW,218,0.0,0.0,28,0.00,,---,0.00,VWS V14.01,2013-04-20 07:50:00,
2013-04-20 00:55:00,54.0,22.5,29.32,SW,218,0.0,0.0,29,0.00,,---,0.00,VWS V14.01,2013-04-20 07:55:00,
2013-04-20 01:00:00,53.8,22.3,29.32,SW,218,0.0,0.0,29,0.00,,---,0.00,VWS V14.01,2013-04-20 08:00:00,
2013-04-20 01:05:00,54.7,23.9,29.32,SW,218,0.0,0.0,30,0.00,,---,0.00,VWS V14.01,2013-04-20 08:05:00,
2013-04-20 01:10:00,55.0,23.4,29.32,SW,218,0.0,0.0,29,0.00,,---,0.00,VWS V14.01,2013-04-20 08:10:00,
2013-04-20 01:15:00,55.0,23.4,29.32,SW,218,0.0,0.0,29,0.00,,---,0.00,VWS V14.01,2013-04-20 08:15:00,
2013-04-20 01:20:00,54.7,23.1,29.32,SW,218,0.0,0.0,29,0.00,,---,0.00,VWS V14.01,2013-04-20 08:20:00,
2013-04-20 01:25:00,54.0,23.2,29.32,SW,218,0.0,0.0,30,0.00,,---,0.00,VWS V14.01,2013-04-20 08:25:00,
2013-04-20 01:30:00,54.3,24.4,29.32,SSW,201,0.0,0.0,31,0.00,,---,0.00,VWS V14.01,2013-04-20 08:30:00,
2013-04-20 01:35:00,54.7,23.9,29.32,ESE,107,3.1,3.6,30,0.00,,---,0.00,VWS V14.01,2013-04-20 08:35:00,
2013-04-20 01:40:00,54.5,23.7,29.32,ESE,105,3.1,3.6,30,0.00,,---,0.00,VWS V14.01,2013-04-20 08:40:00,
2013-04-20 01:45:00,54.3,24.4,29.32,ESE,117,4.0,4.9,31,0.00,,---,0.00,VWS V14.01,2013-04-20 08:45:00,
2013-04-20 01:50:00,53.8,23.9,29.32,ESE,122,4.5,4.5,31,0.00,,---,0.00,VWS V14.01,2013-04-20 08:50:00,
2013-04-20 01:55:00,54.0,24.8,29.32,SE,125,3.1,4.9,32,0.00,,---,0.00,VWS V14.01,2013-04-20 08:55:00,
2013-04-20 02:00:00,54.3,25.1,29.32,ESE,123,4.9,4.9,32,0.00,,---,0.00,VWS V14.01,2013-04-20 09:00:00,
2013-04-20 02:05:00,54.5,23.7,29.32,SE,130,4.9,5.8,30,0.00,,---,0.00,VWS V14.01,2013-04-20 09:05:00,
2013-04-20 02:10:00,54.0,23.2,29.32,SE,133,0.0,3.6,30,0.00,,---,0.00,VWS V14.01,2013-04-20 09:10:00,
2013-04-20 02:15:00,53.4,23.6,29.32,SE,127,0.0,0.0,31,0.00,,---,0.00,VWS V14.01,2013-04-20 09:15:00,
2013-04-20 02:20:00,54.0,24.8,29.32,SE,128,3.1,3.1,32,0.00,,---,0.00,VWS V14.01,2013-04-20 09:20:00,
2013-04-20 02:25:00,53.6,24.5,29.32,SE,137,5.4,5.4,32,0.00,,---,0.00,VWS V14.01,2013-04-20 09:25:00,
2013-04-20 02:30:00,53.1,24.0,29.32,East,82,0.0,0.0,32,0.00,,---,0.00,VWS V14.01,2013-04-20 09:30:00,
2013-04-20 02:35:00,51.8,22.1,29.32,East,82,0.0,0.0,31,0.00,,---,0.00,VWS V14.01,2013-04-20 09:35:00,
2013-04-20 02:40:00,51.1,24.4,29.32,East,82,0.0,0.0,35,0.00,,---,0.00,VWS V14.01,2013-04-20 09:40:00,
2013-04-20 02:45:00,50.0,24.1,29.32,NNE,12,0.0,0.0,36,0.00,,---,0.00,VWS V14.01,2013-04-20 09:45:00,
2013-04-20 02:50:00,49.5,24.3,29.32,West,269,3.1,4.0,37,0.00,,---,0.00,VWS V14.01,2013-04-20 09:50:00,
2013-04-20 02:55:00,49.5,24.9,29.32,West,269,0.0,0.0,38,0.00,,---,0.00,VWS V14.01,2013-04-20 09:55:00,
2013-04-20 03:00:00,49.1,27.0,29.32,NNE,27,2.7,2.7,42,0.00,,---,0.00,VWS V14.01,2013-04-20 10:00:00,
2013-04-20 03:05:00,48.7,26.1,29.32,NNE,23,0.0,4.5,41,0.00,,---,0.00,VWS V14.01,2013-04-20 10:05:00,
2013-04-20 03:10:00,49.1,28.1,29.32,NE,38,2.7,4.5,44,0.00,,---,0.00,VWS V14.01,2013-04-20 10:10:00,
2013-04-20 03:15:00,48.6,26.0,29.32,SE,138,0.0,0.0,41,0.00,,---,0.00,VWS V14.01,2013-04-20 10:15:00,
2013-04-20 03:20:00,48.2,27.9,29.32,SE,138,0.0,0.0,45,0.00,,---,0.00,VWS V14.01,2013-04-20 10:20:00,
2013-04-20 03:25:00,48.6,29.3,29.32,East,88,0.0,0.0,47,0.00,,---,0.00,VWS V14.01,2013-04-20 10:25:00,
2013-04-20 03:30:00,49.6,31.3,29.32,East,88,0.0,0.0,49,0.00,,---,0.00,VWS V14.01,2013-04-20 10:30:00,
2013-04-20 03:35:00,48.7,28.9,29.32,NW,325,3.6,3.6,46,0.00,,---,0.00,VWS V14.01,2013-04-20 10:35:00,
2013-04-20 03:40:00,47.8,26.4,29.32,NW,325,3.1,4.0,43,0.00,,---,0.00,VWS V14.01,2013-04-20 10:40:00,
2013-04-20 03:46:00,47.7,26.8,29.32,NE,41,0.0,0.0,44,0.00,,---,0.00,VWS V14.01,2013-04-20 10:46:00,
2013-04-20 03:51:00,48.4,29.6,29.35,NE,41,0.0,0.0,48,0.00,,---,0.00,VWS V14.01,2013-04-20 10:51:00,
2013-04-20 03:56:00,49.1,30.3,29.35,East,95,4.0,4.0,48,0.00,,---,0.00,VWS V14.01,2013-04-20 10:56:00,
2013-04-20 04:01:00,49.6,30.2,29.35,SE,135,4.5,4.9,47,0.00,,---,0.00,VWS V14.01,2013-04-20 11:01:00,
2013-04-20 04:06:00,50.5,28.9,29.32,SSE,154,3.1,4.9,43,0.00,,---,0.00,VWS V14.01,2013-04-20 11:06:00,
2013-04-20 04:11:00,50.4,26.4,29.32,SE,144,0.0,0.0,39,0.00,,---,0.00,VWS V14.01,2013-04-20 11:11:00,
2013-04-20 04:16:00,49.1,24.6,29.32,SE,144,0.0,0.0,38,0.00,,---,0.00,VWS V14.01,2013-04-20 11:16:00,
2013-04-20 04:21:00,49.1,28.7,29.32,SE,136,2.7,3.6,45,0.00,,---,0.00,VWS V14.01,2013-04-20 11:21:00,
2013-04-20 04:26:00,49.6,29.2,29.32,SE,128,3.6,3.6,45,0.00,,---,0.00,VWS V14.01,2013-04-20 11:26:00,
2013-04-20 04:31:00,50.2,28.6,29.32,SE,129,0.0,3.6,43,0.00,,---,0.00,VWS V14.01,2013-04-20 11:31:00,
2013-04-20 04:36:00,48.6,24.1,29.32,SE,127,0.0,0.0,38,0.00,,---,0.00,VWS V14.01,2013-04-20 11:36:00,
2013-04-20 04:41:00,47.3,24.8,29.32,East,92,0.0,0.0,41,0.00,,---,0.00,VWS V14.01,2013-04-20 11:41:00,
2013-04-20 04:46:00,46.6,25.3,29.32,NE,54,0.0,0.0,43,0.00,,---,0.00,VWS V14.01,2013-04-20 11:46:00,
2013-04-20 04:51:00,46.0,25.4,29.32,NE,54,0.0,0.0,44,0.00,,---,0.00,VWS V14.01,2013-04-20 11:51:00,
2013-04-20 04:56:00,46.0,27.0,29.32,NE,54,0.0,0.0,47,0.00,,---,0.00,VWS V14.01,2013-04-20 11:56:00,
2013-04-20 05:01:00,46.0,27.5,29.32,NE,53,0.0,0.0,48,0.00,,---,0.00,VWS V14.01,2013-04-20 12:01:00,
2013-04-20 05:06:00,45.9,27.3,29.32,NE,53,0.0,0.0,48,0.00,,---,0.00,VWS V14.01,2013-04-20 12:06:00,
2013-04-20 05:11:00,46.6,29.9,29.32,NE,49,0.0,0.0,52,0.00,,---,0.00,VWS V14.01,2013-04-20 12:11:00,
2013-04-20 05:16:00,46.8,30.1,29.32,NE,38,0.0,0.0,52,0.00,,---,0.00,VWS V14.01,2013-04-20 12:16:00,
2013-04-20 05:21:00,47.3,32.4,29.32,ENE,77,0.0,3.6,56,0.00,,---,0.00,VWS V14.01,2013-04-20 12:21:00,
2013-04-20 05:26:00,48.6,33.1,29.32,ESE,108,3.1,3.6,55,0.00,,---,0.00,VWS V14.01,2013-04-20 12:26:00,
2013-04-20 05:31:00,48.2,30.9,29.32,ESE,108,0.0,0.0,51,0.00,,---,0.00,VWS V14.01,2013-04-20 12:31:00,
2013-04-20 05:36:00,48.0,30.3,29.35,South,190,3.6,4.0,50,0.00,,---,0.00,VWS V14.01,2013-04-20 12:36:00,
2013-04-20 05:41:00,46.2,26.1,29.35,South,191,0.0,0.0,45,0.00,,---,0.00,VWS V14.01,2013-04-20 12:41:00,
2013-04-20 05:46:00,46.4,28.8,29.35,South,190,0.0,0.0,50,0.00,,---,0.00,VWS V14.01,2013-04-20 12:46:00,
2013-04-20 05:51:00,45.9,28.3,29.35,South,190,0.0,0.0,50,0.00,,---,0.00,VWS V14.01,2013-04-20 12:51:00,
2013-04-20 05:56:00,46.0,28.9,29.35,East,86,3.6,4.0,51,0.00,,---,0.00,VWS V14.01,2013-04-20 12:56:00,
2013-04-20 06:01:00,45.5,28.4,29.35,East,83,3.6,3.6,51,0.00,,---,0.00,VWS V14.01,2013-04-20 13:01:00,
2013-04-20 06:06:00,46.0,30.3,29.35,East,81,0.0,0.0,54,0.00,,---,0.00,VWS V14.01,2013-04-20 13:06:00,
2013-04-20 06:11:00,47.1,33.5,29.35,ESE,116,0.0,0.0,59,0.00,,---,0.00,VWS V14.01,2013-04-20 13:11:00,
2013-04-20 06:16:00,46.8,31.5,29.35,East,93,0.0,4.0,55,0.00,,---,0.00,VWS V14.01,2013-04-20 13:16:00,
2013-04-20 06:21:00,46.8,30.1,29.35,East,93,0.0,0.0,52,0.00,,---,0.00,VWS V14.01,2013-04-20 13:21:00,
2013-04-20 06:26:00,47.5,33.0,29.35,SE,143,4.9,5.4,57,0.00,,---,0.00,VWS V14.01,2013-04-20 13:26:00,
2013-04-20 06:31:00,48.4,33.4,29.35,SE,140,4.5,5.8,56,0.00,,---,0.00,VWS V14.01,2013-04-20 13:31:00,
2013-04-20 06:36:00,48.9,32.1,29.35,East,85,0.0,0.0,52,0.00,,---,0.00,VWS V14.01,2013-04-20 13:36:00,
2013-04-20 06:41:00,48.4,30.1,29.35,East,100,3.1,3.6,49,0.00,,---,0.00,VWS V14.01,2013-04-20 13:41:00,
2013-04-20 06:46:00,48.7,31.4,29.35,ESE,121,3.6,3.6,51,0.00,,---,0.00,VWS V14.01,2013-04-20 13:46:00,
2013-04-20 06:51:00,49.3,31.5,29.35,ESE,111,3.6,4.0,50,0.00,,---,0.00,VWS V14.01,2013-04-20 13:51:00,
2013-04-20 06:56:00,50.9,31.9,29.35,ESE,111,3.1,3.6,48,0.00,,---,0.00,VWS V14.01,2013-04-20 13:56:00,
2013-04-20 07:01:00,52.9,28.6,29.35,ESE,104,3.6,3.6,39,0.00,,---,0.00,VWS V14.01,2013-04-20 14:01:00,
2013-04-20 07:06:00,53.6,27.3,29.35,East,98,0.0,2.7,36,0.00,,---,0.00,VWS V14.01,2013-04-20 14:06:00,
2013-04-20 07:11:00,52.3,26.9,29.35,ESE,110,0.0,0.0,37,0.00,,---,0.00,VWS V14.01,2013-04-20 14:11:00,
2013-04-20 07:16:00,51.8,26.4,29.35,ESE,110,0.0,0.0,37,0.00,,---,0.00,VWS V14.01,2013-04-20 14:16:00,
2013-04-20 07:21:00,51.8,27.6,29.35,ESE,110,0.0,0.0,39,0.00,,---,0.00,VWS V14.01,2013-04-20 14:21:00,
2013-04-20 07:26:00,52.5,29.5,29.35,SE,128,4.0,4.0,41,0.00,,---,0.00,VWS V14.01,2013-04-20 14:26:00,
2013-04-20 07:31:00,54.0,28.3,29.35,ESE,112,3.1,4.9,37,0.00,,---,0.00,VWS V14.01,2013-04-20 14:31:00,
2013-04-20 07:36:00,54.5,27.4,29.35,SE,141,4.5,4.5,35,0.00,,---,0.00,VWS V14.01,2013-04-20 14:36:00,
2013-04-20 07:41:00,55.4,28.2,29.35,SSE,162,3.6,4.9,35,0.00,,---,0.00,VWS V14.01,2013-04-20 14:41:00,
2013-04-20 07:46:00,56.1,27.4,29.35,SE,143,0.0,0.0,33,0.00,,---,0.00,VWS V14.01,2013-04-20 14:46:00,
2013-04-20 07:51:00,57.0,25.1,29.35,South,181,2.7,5.4,29,0.00,,---,0.00,VWS V14.01,2013-04-20 14:51:00,
2013-04-20 07:56:00,57.7,23.1,29.35,West,279,3.6,10.5,26,0.00,,---,0.00,VWS V14.01,2013-04-20 14:56:00,
2013-04-20 08:01:00,59.0,23.2,29.35,SSW,209,3.1,4.0,25,0.00,,---,0.00,VWS V14.01,2013-04-20 15:01:00,
2013-04-20 08:06:00,60.8,23.8,29.35,East,91,4.0,6.7,24,0.00,,---,0.00,VWS V14.01,2013-04-20 15:06:00,
2013-04-20 08:11:00,62.1,23.9,29.35,North,351,3.1,3.1,23,0.00,,---,0.00,VWS V14.01,2013-04-20 15:11:00,
2013-04-20 08:16:00,62.6,22.1,29.35,WSW,253,3.6,4.0,21,0.00,,---,0.00,VWS V14.01,2013-04-20 15:16:00,
2013-04-20 08:21:00,63.0,22.5,29.32,West,273,0.0,4.0,21,0.00,,---,0.00,VWS V14.01,2013-04-20 15:21:00,
2013-04-20 08:26:00,64.0,19.7,29.32,SW,236,2.7,4.9,18,0.00,,---,0.00,VWS V14.01,2013-04-20 15:26:00,
2013-04-20 08:31:00,65.5,19.5,29.32,West,262,5.8,5.8,17,0.00,,---,0.00,VWS V14.01,2013-04-20 15:31:00,
2013-04-20 08:36:00,66.0,17.1,29.32,NNE,13,12.1,14.8,15,0.00,,---,0.00,VWS V14.01,2013-04-20 15:36:00,
2013-04-20 08:41:00,66.7,17.6,29.32,NNW,343,11.6,13.4,15,0.00,,---,0.00,VWS V14.01,2013-04-20 15:41:00,
2013-04-20 08:46:00,66.7,17.6,29.32,North,10,14.3,15.2,15,0.00,,---,0.00,VWS V14.01,2013-04-20 15:46:00,
2013-04-20 08:51:00,66.4,17.4,29.32,North,356,19.5,23.7,15,0.00,,---,0.00,VWS V14.01,2013-04-20 15:51:00,
2013-04-20 08:56:00,67.1,17.9,29.32,NNE,16,16.3,16.3,15,0.00,,---,0.00,VWS V14.01,2013-04-20 15:56:00,
2013-04-20 09:01:00,67.6,18.4,29.32,North,4,13.0,15.2,15,0.00,,---,0.00,VWS V14.01,2013-04-20 16:01:00,
2013-04-20 09:06:00,66.7,17.6,29.32,North,8,17.7,22.8,15,0.00,,---,0.00,VWS V14.01,2013-04-20 16:06:00,
2013-04-20 09:11:00,67.3,18.1,29.32,North,356,11.6,15.9,15,0.00,,---,0.00,VWS V14.01,2013-04-20 16:11:00,
2013-04-20 09:16:00,67.1,17.9,29.32,North,356,9.2,13.9,15,0.00,,---,0.00,VWS V14.01,2013-04-20 16:16:00,
2013-04-20 09:21:00,67.3,18.1,29.32,North,351,14.8,15.9,15,0.00,,---,0.00,VWS V14.01,2013-04-20 16:21:00,
2013-04-20 09:26:00,67.8,18.5,29.32,North,356,10.5,13.9,15,0.00,,---,0.00,VWS V14.01,2013-04-20 16:26:00,
2013-04-20 09:31:00,68.0,18.7,29.32,NE,36,13.4,13.4,15,0.00,,---,0.00,VWS V14.01,2013-04-20 16:31:00,
2013-04-20 09:36:00,67.8,18.5,29.32,North,0,11.0,14.8,15,0.00,,---,0.00,VWS V14.01,2013-04-20 16:36:00,
2013-04-20 09:41:00,67.6,18.4,29.32,NNE,26,12.1,13.4,15,0.00,,---,0.00,VWS V14.01,2013-04-20 16:41:00,
2013-04-20 09:46:00,67.8,18.5,29.32,North,4,7.4,13.9,15,0.00,,---,0.00,VWS V14.01,2013-04-20 16:46:00,
2013-04-20 09:51:00,68.4,19.0,29.32,NNW,329,6.7,8.7,15,0.00,,---,0.00,VWS V14.01,2013-04-20 16:51:00,
2013-04-20 09:56:00,68.0,18.7,29.32,NNW,347,11.0,15.2,15,0.00,,---,0.00,VWS V14.01,2013-04-20 16:56:00,
2013-04-20 10:01:00,68.7,19.2,29.32,NNW,345,15.9,15.9,15,0.00,,---,0.00,VWS V14.01,2013-04-20 17:01:00,
2013-04-20 10:06:00,69.1,17.9,29.32,WNW,296,11.2,17.7,14,0.00,,---,0.00,VWS V14.01,2013-04-20 17:06:00,
2013-04-20 10:11:00,69.3,18.1,29.32,North,351,8.3,15.2,14,0.00,,---,0.00,VWS V14.01,2013-04-20 17:11:00,
2013-04-20 10:16:00,69.1,17.9,29.32,NNW,345,7.8,11.6,14,0.00,,---,0.00,VWS V14.01,2013-04-20 17:16:00,
2013-04-20 10:21:00,69.1,17.9,29.29,North,356,8.3,14.3,14,0.00,,---,0.00,VWS V14.01,2013-04-20 17:21:00,
2013-04-20 10:26:00,69.6,18.4,29.29,North,351,9.2,12.1,14,0.00,,---,0.00,VWS V14.01,2013-04-20 17:26:00,
2013-04-20 10:31:00,69.4,18.2,29.29,North,356,12.5,13.4,14,0.00,,---,0.00,VWS V14.01,2013-04-20 17:31:00,
2013-04-20 10:36:00,69.6,18.4,29.29,North,4,13.9,16.8,14,0.00,,---,0.00,VWS V14.01,2013-04-20 17:36:00,
2013-04-20 10:41:00,70.5,19.1,29.29,North,2,10.5,13.0,14,0.00,,---,0.00,VWS V14.01,2013-04-20 17:41:00,
2013-04-20 10:46:00,70.3,18.9,29.29,North,0,10.1,15.2,14,0.00,,---,0.00,VWS V14.01,2013-04-20 17:46:00,
2013-04-20 10:51:00,71.1,19.5,29.29,North,351,6.9,10.1,14,0.00,,---,0.00,VWS V14.01,2013-04-20 17:51:00,
2013-04-20 10:57:00,70.9,19.4,29.29,NNW,335,11.6,11.6,14,0.00,,---,0.00,VWS V14.01,2013-04-20 17:57:00,
2013-04-20 11:02:00,72.0,20.2,29.29,NNW,343,10.5,12.5,14,0.00,,---,0.00,VWS V14.01,2013-04-20 18:02:00,
2013-04-20 11:07:00,70.9,19.4,29.29,North,356,13.9,17.2,14,0.00,,---,0.00,VWS V14.01,2013-04-20 18:07:00,
2013-04-20 11:12:00,71.4,19.8,29.29,NNE,12,11.2,13.4,14,0.00,,---,0.00,VWS V14.01,2013-04-20 18:12:00,
2013-04-20 11:17:00,71.8,20.1,29.29,NNW,340,11.0,11.6,14,0.00,,---,0.00,VWS V14.01,2013-04-20 18:17:00,
2013-04-20 11:22:00,72.3,20.5,29.29,NNW,347,13.4,13.4,14,0.00,,---,0.00,VWS V14.01,2013-04-20 18:22:00,
2013-04-20 11:27:00,71.4,19.8,29.29,NNW,340,10.5,16.8,14,0.00,,---,0.00,VWS V14.01,2013-04-20 18:27:00,
2013-04-20 11:32:00,73.2,19.5,29.29,NNW,338,10.1,10.1,13,0.00,,---,0.00,VWS V14.01,2013-04-20 18:32:00,
2013-04-20 11:37:00,72.3,20.5,29.29,North,356,11.6,13.9,14,0.00,,---,0.00,VWS V14.01,2013-04-20 18:37:00,
2013-04-20 11:42:00,73.0,19.3,29.29,North,351,9.6,14.3,13,0.00,,---,0.00,VWS V14.01,2013-04-20 18:42:00,
2013-04-20 11:47:00,72.7,19.0,29.29,North,351,9.2,10.5,13,0.00,,---,0.00,VWS V14.01,2013-04-20 18:47:00,
2013-04-20 11:52:00,73.0,19.3,29.29,North,8,5.8,13.0,13,0.00,,---,0.00,VWS V14.01,2013-04-20 18:52:00,
2013-04-20 11:57:00,73.2,19.5,29.29,NNW,343,9.2,12.5,13,0.00,,---,0.00,VWS V14.01,2013-04-20 18:57:00,
2013-04-20 12:02:00,73.6,19.8,29.29,NNW,331,8.7,13.0,13,0.00,,---,0.00,VWS V14.01,2013-04-20 19:02:00,
2013-04-20 12:07:00,73.8,19.9,29.29,NNW,340,11.0,13.4,13,0.00,,---,0.00,VWS V14.01,2013-04-20 19:07:00,
2013-04-20 12:12:00,73.4,19.6,29.29,NNE,18,7.8,12.5,13,0.00,,---,0.00,VWS V14.01,2013-04-20 19:12:00,
2013-04-20 12:17:00,74.7,20.6,29.29,NNW,339,13.9,13.9,13,0.00,,---,0.00,VWS V14.01,2013-04-20 19:17:00,
2013-04-20 12:22:00,74.8,20.7,29.29,North,351,11.2,12.5,13,0.00,,---,0.00,VWS V14.01,2013-04-20 19:22:00,
2013-04-20 12:27:00,74.3,20.3,29.29,NW,322,8.7,14.3,13,0.00,,---,0.00,VWS V14.01,2013-04-20 19:27:00,
2013-04-20 12:32:00,74.1,20.2,29.26,NNW,340,11.2,15.2,13,0.00,,---,0.00,VWS V14.01,2013-04-20 19:32:00,
2013-04-20 12:37:00,74.7,20.6,29.26,North,356,7.4,13.4,13,0.00,,---,0.00,VWS V14.01,2013-04-20 19:37:00,
2013-04-20 12:42:00,76.1,21.7,29.26,NNE,16,10.5,15.2,13,0.00,,---,0.00,VWS V14.01,2013-04-20 19:42:00,
2013-04-20 12:47:00,75.0,20.9,29.26,NNW,346,12.5,12.5,13,0.00,,---,0.00,VWS V14.01,2013-04-20 19:47:00,
2013-04-20 12:52:00,76.3,21.9,29.26,NNW,347,8.7,8.7,13,0.00,,---,0.00,VWS V14.01,2013-04-20 19:52:00,
2013-04-20 12:57:00,76.1,21.7,29.26,North,351,6.3,10.5,13,0.00,,---,0.00,VWS V14.01,2013-04-20 19:57:00,
2013-04-20 13:02:00,76.3,21.9,29.26,North,356,6.3,12.1,13,0.00,,---,0.00,VWS V14.01,2013-04-20 20:02:00,
2013-04-20 13:07:00,75.9,21.6,29.26,NNE,29,8.3,9.2,13,0.00,,---,0.00,VWS V14.01,2013-04-20 20:07:00,
2013-04-20 13:12:00,76.6,22.1,29.26,NNE,16,6.9,12.1,13,0.00,,---,0.00,VWS V14.01,2013-04-20 20:12:00,
2013-04-20 13:17:00,78.1,21.4,29.26,NE,34,11.6,13.0,12,0.00,,---,0.00,VWS V14.01,2013-04-20 20:17:00,
2013-04-20 13:22:00,77.5,22.9,29.23,NNW,341,3.6,7.4,13,0.00,,---,0.00,VWS V14.01,2013-04-20 20:22:00,
2013-04-20 13:27:00,77.7,23.0,29.23,North,356,10.5,10.5,13,0.00,,---,0.00,VWS V14.01,2013-04-20 20:27:00,
2013-04-20 13:32:00,77.4,22.7,29.23,NNW,343,9.2,11.6,13,0.00,,---,0.00,VWS V14.01,2013-04-20 20:32:00,
2013-04-20 13:37:00,78.3,21.5,29.23,NNE,25,10.1,10.1,12,0.00,,---,0.00,VWS V14.01,2013-04-20 20:37:00,
2013-04-20 13:42:00,77.9,23.1,29.23,NNE,16,7.8,12.5,13,0.00,,---,0.00,VWS V14.01,2013-04-20 20:42:00,
2013-04-20 13:47:00,79.2,22.2,29.23,North,9,8.3,10.1,12,0.00,,---,0.00,VWS V14.01,2013-04-20 20:47:00,
2013-04-20 13:52:00,78.1,21.4,29.23,NNE,23,9.2,11.6,12,0.00,,---,0.00,VWS V14.01,2013-04-20 20:52:00,
2013-04-20 13:57:00,79.0,22.1,29.23,North,10,7.8,7.8,12,0.00,,---,0.00,VWS V14.01,2013-04-20 20:57:00,
2013-04-20 14:02:00,78.6,21.8,29.23,NNW,341,5.8,7.4,12,0.00,,---,0.00,VWS V14.01,2013-04-20 21:02:00,
2013-04-20 14:07:00,78.8,22.0,29.23,NNW,341,6.7,9.2,12,0.00,,---,0.00,VWS V14.01,2013-04-20 21:07:00,
2013-04-20 14:12:00,79.9,22.8,29.23,North,356,5.8,8.3,12,0.00,,---,0.00,VWS V14.01,2013-04-20 21:12:00,
2013-04-20 14:17:00,79.2,22.2,29.23,North,8,6.3,11.2,12,0.00,,---,0.00,VWS V14.01,2013-04-20 21:17:00,
2013-04-20 14:22:00,79.7,22.6,29.23,NNW,341,7.4,8.3,12,0.00,,---,0.00,VWS V14.01,2013-04-20 21:22:00,
2013-04-20 14:27:00,78.4,21.7,29.23,North,356,10.1,12.5,12,0.00,,---,0.00,VWS V14.01,2013-04-20 21:27:00,
2013-04-20 14:32:00,78.4,21.7,29.23,NE,44,5.4,6.3,12,0.00,,---,0.00,VWS V14.01,2013-04-20 21:32:00,
2013-04-20 14:37:00,79.3,22.4,29.23,NNW,332,5.4,10.5,12,0.00,,---,0.00,VWS V14.01,2013-04-20 21:37:00,
2013-04-20 14:42:00,79.2,22.2,29.23,North,351,8.3,10.1,12,0.00,,---,0.00,VWS V14.01,2013-04-20 21:42:00,
2013-04-20 14:47:00,79.0,22.1,29.23,NNE,24,6.9,8.7,12,0.00,,---,0.00,VWS V14.01,2013-04-20 21:47:00,
2013-04-20 14:52:00,79.9,22.8,29.23,NNE,20,6.3,8.3,12,0.00,,---,0.00,VWS V14.01,2013-04-20 21:52:00,
2013-04-20 14:57:00,79.9,22.8,29.23,NNW,333,0.0,4.0,12,0.00,,---,0.00,VWS V14.01,2013-04-20 21:57:00,
2013-04-20 15:02:00,79.3,22.4,29.23,NNW,339,6.9,11.2,12,0.00,,---,0.00,VWS V14.01,2013-04-20 22:02:00,
2013-04-20 15:07:00,79.2,22.2,29.23,North,351,5.8,5.8,12,0.00,,---,0.00,VWS V14.01,2013-04-20 22:07:00,
2013-04-20 15:12:00,79.7,22.6,29.23,NNE,19,4.5,8.7,12,0.00,,---,0.00,VWS V14.01,2013-04-20 22:12:00,
2013-04-20 15:17:00,79.5,22.5,29.21,NNW,347,9.2,11.0,12,0.00,,---,0.00,VWS V14.01,2013-04-20 22:17:00,
2013-04-20 15:22:00,80.2,23.1,29.21,NW,320,4.5,4.9,12,0.00,,---,0.00,VWS V14.01,2013-04-20 22:22:00,
2013-04-20 15:27:00,80.4,23.2,29.21,North,7,5.8,7.4,12,0.00,,---,0.00,VWS V14.01,2013-04-20 22:27:00,
2013-04-20 15:32:00,80.1,22.9,29.21,NE,39,4.0,10.1,12,0.00,,---,0.00,VWS V14.01,2013-04-20 22:32:00,
2013-04-20 15:37:00,81.0,23.6,29.21,West,272,4.5,5.8,12,0.00,,---,0.00,VWS V14.01,2013-04-20 22:37:00,
2013-04-20 15:42:00,80.2,23.1,29.21,North,11,6.3,9.2,12,0.00,,---,0.00,VWS V14.01,2013-04-20 22:42:00,
2013-04-20 15:47:00,79.7,22.6,29.21,NNW,336,9.2,10.1,12,0.00,,---,0.00,VWS V14.01,2013-04-20 22:47:00,
2013-04-20 15:52:00,80.1,22.9,29.21,NNW,332,5.4,7.8,12,0.00,,---,0.00,VWS V14.01,2013-04-20 22:52:00,
2013-04-20 15:57:00,80.2,23.1,29.21,North,351,6.9,8.7,12,0.00,,---,0.00,VWS V14.01,2013-04-20 22:57:00,
2013-04-20 16:02:00,81.0,23.6,29.21,NNW,336,10.5,10.5,12,0.00,,---,0.00,VWS V14.01,2013-04-20 23:02:00,
2013-04-20 16:07:00,80.8,23.5,29.21,North,356,4.9,6.9,12,0.00,,---,0.00,VWS V14.01,2013-04-20 23:07:00,
2013-04-20 16:12:00,81.0,23.6,29.21,NNE,14,4.0,6.7,12,0.00,,---,0.00,VWS V14.01,2013-04-20 23:12:00,
2013-04-20 16:17:00,81.9,22.2,29.21,North,356,6.3,6.7,11,0.00,,---,0.00,VWS V14.01,2013-04-20 23:17:00,
2013-04-20 16:22:00,81.7,22.1,29.21,NW,311,7.8,7.8,11,0.00,,---,0.00,VWS V14.01,2013-04-20 23:22:00,
2013-04-20 16:27:00,81.3,23.9,29.21,West,278,3.6,8.7,12,0.00,,---,0.00,VWS V14.01,2013-04-20 23:27:00,
2013-04-20 16:32:00,81.3,23.9,29.21,NNW,334,7.4,9.6,12,0.00,,---,0.00,VWS V14.01,2013-04-20 23:32:00,
2013-04-20 16:37:00,81.7,22.1,29.21,WSW,258,0.0,4.0,11,0.00,,---,0.00,VWS V14.01,2013-04-20 23:37:00,
2013-04-20 16:42:00,83.1,23.2,29.21,WSW,241,5.4,8.7,11,0.00,,---,0.00,VWS V14.01,2013-04-20 23:42:00,
2013-04-20 16:47:00,81.7,22.1,29.21,NNW,334,11.0,11.6,11,0.00,,---,0.00,VWS V14.01,2013-04-20 23:47:00,
2013-04-20 16:52:00,81.9,22.2,29.21,WNW,295,11.0,13.9,11,0.00,,---,0.00,VWS V14.01,2013-04-20 23:52:00,
2013-04-20 16:57:00,82.2,22.5,29.21,West,275,10.5,13.4,11,0.00,,---,0.00,VWS V14.01,2013-04-20 23:57:00,
2013-04-20 17:02:00,82.2,22.5,29.18,West,263,7.4,11.6,11,0.00,,---,0.00,VWS V14.01,2013-04-21 00:02:00,
2013-04-20 17:07:00,82.0,22.4,29.18,NW,306,10.5,10.5,11,0.00,,---,0.00,VWS V14.01,2013-04-21 00:07:00,
2013-04-20 17:12:00,81.7,22.1,29.18,WSW,255,7.8,9.2,11,0.00,,---,0.00,VWS V14.01,2013-04-21 00:12:00,
2013-04-20 17:17:00,81.5,22.0,29.18,WNW,294,3.6,9.2,11,0.00,,---,0.00,VWS V14.01,2013-04-21 00:17:00,
2013-04-20 17:22:00,81.5,24.0,29.18,WSW,253,7.4,9.6,12,0.00,,---,0.00,VWS V14.01,2013-04-21 00:22:00,
2013-04-20 17:27:00,81.7,22.1,29.18,WSW,251,5.8,8.7,11,0.00,,---,0.00,VWS V14.01,2013-04-21 00:27:00,
2013-04-20 17:32:00,81.7,22.1,29.18,West,269,10.1,12.5,11,0.00,,---,0.00,VWS V14.01,2013-04-21 00:32:00,
2013-04-20 17:37:00,81.3,23.9,29.18,WNW,288,8.7,8.7,12,0.00,,---,0.00,VWS V14.01,2013-04-21 00:37:00,
2013-04-20 17:42:00,80.8,23.5,29.18,WNW,285,8.7,11.0,12,0.00,,---,0.00,VWS V14.01,2013-04-21 00:42:00,
2013-04-20 17:47:00,80.6,23.4,29.18,WNW,299,6.7,10.5,12,0.00,,---,0.00,VWS V14.01,2013-04-21 00:47:00,
2013-04-20 17:53:00,80.4,23.2,29.18,West,264,6.9,10.5,12,0.00,,---,0.00,VWS V14.01,2013-04-21 00:53:00,
2013-04-20 17:58:00,80.1,22.9,29.18,West,268,6.9,9.6,12,0.00,,---,0.00,VWS V14.01,2013-04-21 00:58:00,
2013-04-20 18:03:00,79.3,22.4,29.18,West,276,9.2,10.5,12,0.00,,---,0.00,VWS V14.01,2013-04-21 01:03:00,
2013-04-20 18:08:00,78.6,21.8,29.18,WNW,283,11.0,13.4,12,0.00,,---,0.00,VWS V14.01,2013-04-21 01:08:00,
2013-04-20 18:13:00,78.1,21.4,29.18,West,259,7.8,10.1,12,0.00,,---,0.00,VWS V14.01,2013-04-21 01:13:00,
2013-04-20 18:18:00,77.7,23.0,29.18,West,271,10.5,10.5,13,0.00,,---,0.00,VWS V14.01,2013-04-21 01:18:00,
2013-04-20 18:23:00,77.0,22.4,29.18,WNW,291,13.0,13.4,13,0.00,,---,0.00,VWS V14.01,2013-04-21 01:23:00,
2013-04-20 18:28:00,76.3,21.9,29.18,West,281,8.3,10.5,13,0.00,,---,0.00,VWS V14.01,2013-04-21 01:28:00,
2013-04-20 18:33:00,75.9,21.6,29.18,West,263,7.8,10.5,13,0.00,,---,0.00,VWS V14.01,2013-04-21 01:33:00,
2013-04-20 18:38:00,75.6,21.3,29.18,WSW,254,10.1,10.1,13,0.00,,---,0.00,VWS V14.01,2013-04-21 01:38:00,
2013-04-20 18:43:00,74.8,20.7,29.18,West,274,8.3,11.6,13,0.00,,---,0.00,VWS V14.01,2013-04-21 01:43:00,
2013-04-20 18:48:00,74.3,20.3,29.21,WSW,247,9.6,11.0,13,0.00,,---,0.00,VWS V14.01,2013-04-21 01:48:00,
2013-04-20 18:53:00,73.8,19.9,29.21,SW,232,9.2,9.2,13,0.00,,---,0.00,VWS V14.01,2013-04-21 01:53:00,
2013-04-20 18:58:00,73.0,19.3,29.21,WSW,238,6.7,8.7,13,0.00,,---,0.00,VWS V14.01,2013-04-21 01:58:00,
2013-04-20 19:03:00,72.5,20.6,29.21,WSW,246,7.4,9.2,14,0.00,,---,0.00,VWS V14.01,2013-04-21 02:03:00,
2013-04-20 19:08:00,72.1,20.4,29.21,WSW,254,7.4,8.7,14,0.00,,---,0.00,VWS V14.01,2013-04-21 02:08:00,
2013-04-20 19:13:00,71.8,20.1,29.21,WSW,243,5.8,8.3,14,0.00,,---,0.00,VWS V14.01,2013-04-21 02:13:00,
2013-04-20 19:18:00,71.2,19.6,29.21,WSW,249,4.5,6.7,14,0.00,,---,0.00,VWS V14.01,2013-04-21 02:18:00,
2013-04-20 19:23:00,70.9,19.4,29.21,WSW,255,5.8,6.7,14,0.00,,---,0.00,VWS V14.01,2013-04-21 02:23:00,
2013-04-20 19:29:00,70.2,18.8,29.21,WSW,255,7.8,8.3,14,0.00,,---,0.00,VWS V14.01,2013-04-21 02:29:00,
2013-04-20 19:34:00,69.4,18.2,29.21,WSW,247,4.9,5.8,14,0.00,,---,0.00,VWS V14.01,2013-04-21 02:34:00,
2013-04-20 19:39:00,68.5,19.1,29.21,WSW,252,5.4,6.7,15,0.00,,---,0.00,VWS V14.01,2013-04-21 02:39:00,
2013-04-20 19:44:00,67.6,18.4,29.21,WSW,240,5.4,6.7,15,0.00,,---,0.00,VWS V14.01,2013-04-21 02:44:00,
2013-04-20 19:49:00,66.7,17.6,29.21,WSW,248,4.9,5.4,15,0.00,,---,0.00,VWS V14.01,2013-04-21 02:49:00,
2013-04-20 19:54:00,66.0,17.1,29.21,WSW,251,6.3,6.3,15,0.00,,---,0.00,VWS V14.01,2013-04-21 02:54:00,
2013-04-20 19:59:00,65.5,16.6,29.21,WSW,247,5.8,6.7,15,0.00,,---,0.00,VWS V14.01,2013-04-21 02:59:00,
2013-04-20 20:04:00,64.8,16.1,29.21,WSW,245,4.9,6.7,15,0.00,,---,0.00,VWS V14.01,2013-04-21 03:04:00,
2013-04-20 20:09:00,64.4,15.8,29.21,SW,235,5.4,5.8,15,0.00,,---,0.00,VWS V14.01,2013-04-21 03:09:00,
2013-04-20 20:14:00,64.0,15.5,29.21,WSW,247,4.9,5.4,15,0.00,,---,0.00,VWS V14.01,2013-04-21 03:14:00,
2013-04-20 20:19:00,63.7,15.2,29.21,WSW,245,4.9,4.9,15,0.00,,---,0.00,VWS V14.01,2013-04-21 03:19:00,
2013-04-20 20:25:00,63.5,15.1,29.21,WSW,242,4.9,6.7,15,0.00,,---,0.00,VWS V14.01,2013-04-21 03:25:00,
2013-04-20 20:30:00,64.0,15.5,29.21,SW,217,4.9,5.4,15,0.00,,---,0.00,VWS V14.01,2013-04-21 03:30:00,
2013-04-20 20:35:00,65.5,16.6,29.23,SSW,203,3.1,6.3,15,0.00,,---,0.00,VWS V14.01,2013-04-21 03:35:00,
2013-04-20 20:40:00,65.8,16.9,29.23,SW,217,4.5,6.3,15,0.00,,---,0.00,VWS V14.01,2013-04-21 03:40:00,
2013-04-20 20:45:00,65.3,16.5,29.23,SW,230,7.4,7.4,15,0.00,,---,0.00,VWS V14.01,2013-04-21 03:45:00,
2013-04-20 20:50:00,64.6,15.9,29.23,SW,227,5.4,6.3,15,0.00,,---,0.00,VWS V14.01,2013-04-21 03:50:00,
2013-04-20 20:56:00,64.6,15.9,29.23,SW,230,3.1,4.0,15,0.00,,---,0.00,VWS V14.01,2013-04-21 03:56:00,
2013-04-20 21:01:00,63.5,16.5,29.23,SW,230,0.0,0.0,16,0.00,,---,0.00,VWS V14.01,2013-04-21 04:01:00,
2013-04-20 21:02:00,63.1,16.2,29.23,SW,230,0.0,0.0,16,0.00,,---,0.00,VWS V14.01,2013-04-21 04:02:00,
2013-04-20 21:04:00,63.0,16.1,29.23,SW,229,0.0,0.0,16,0.00,,---,0.00,VWS V14.01,2013-04-21 04:04:00,
2013-04-20 21:05:00,62.8,15.9,29.23,SW,229,0.0,0.0,16,0.00,,---,0.00,VWS V14.01,2013-04-21 04:05:00,
2013-04-20 21:07:00,62.6,15.8,29.23,SW,229,0.0,0.0,16,0.00,,---,0.00,VWS V14.01,2013-04-21 04:07:00,
2013-04-20 21:12:00,62.4,15.7,29.23,SW,220,0.0,0.0,16,0.00,,---,0.00,VWS V14.01,2013-04-21 04:12:00,
2013-04-20 21:17:00,61.7,15.1,29.23,SW,220,0.0,0.0,16,0.00,,---,0.00,VWS V14.01,2013-04-21 04:17:00,
2013-04-20 21:22:00,60.6,14.2,29.23,SW,220,0.0,0.0,16,0.00,,---,0.00,VWS V14.01,2013-04-21 04:22:00,
2013-04-20 21:27:00,60.6,14.2,29.23,SSE,150,3.1,3.6,16,0.00,,---,0.00,VWS V14.01,2013-04-21 04:27:00,
2013-04-20 21:32:00,60.1,13.8,29.23,SE,126,3.6,4.0,16,0.00,,---,0.00,VWS V14.01,2013-04-21 04:32:00,
2013-04-20 21:37:00,59.4,14.6,29.23,ESE,119,3.1,3.6,17,0.00,,---,0.00,VWS V14.01,2013-04-21 04:37:00,
2013-04-20 21:42:00,59.4,14.6,29.23,ESE,119,0.0,0.0,17,0.00,,---,0.00,VWS V14.01,2013-04-21 04:42:00,
2013-04-20 21:47:00,57.2,12.8,29.26,ESE,119,0.0,0.0,17,0.00,,---,0.00,VWS V14.01,2013-04-21 04:47:00,
2013-04-20 21:52:00,56.3,12.1,29.26,ESE,119,0.0,0.0,17,0.00,,---,0.00,VWS V14.01,2013-04-21 04:52:00,
2013-04-20 21:57:00,55.8,11.6,29.26,ESE,119,0.0,0.0,17,0.00,,---,0.00,VWS V14.01,2013-04-21 04:57:00,
2013-04-20 22:02:00,55.2,11.2,29.26,ESE,119,0.0,0.0,17,0.00,,---,0.00,VWS V14.01,2013-04-21 05:02:00,
2013-04-20 22:07:00,54.7,14.4,29.26,ESE,119,0.0,0.0,20,0.00,,---,0.00,VWS V14.01,2013-04-21 05:07:00,
2013-04-20 22:12:00,55.4,15.0,29.26,ESE,119,0.0,0.0,20,0.00,,---,0.00,VWS V14.01,2013-04-21 05:12:00,
2013-04-20 22:17:00,55.6,15.2,29.26,ESE,119,0.0,0.0,20,0.00,,---,0.00,VWS V14.01,2013-04-21 05:17:00,
2013-04-20 22:22:00,54.5,17.5,29.26,ESE,119,0.0,0.0,23,0.00,,---,0.00,VWS V14.01,2013-04-21 05:22:00,
2013-04-20 22:27:00,54.3,17.3,29.26,ESE,119,0.0,0.0,23,0.00,,---,0.00,VWS V14.01,2013-04-21 05:27:00,
2013-04-20 22:32:00,54.5,19.4,29.26,ESE,119,0.0,0.0,25,0.00,,---,0.00,VWS V14.01,2013-04-21 05:32:00,
2013-04-20 22:37:00,54.1,19.1,29.26,ESE,119,0.0,0.0,25,0.00,,---,0.00,VWS V14.01,2013-04-21 05:37:00,
2013-04-20 22:42:00,54.0,19.0,29.26,ESE,119,0.0,0.0,25,0.00,,---,0.00,VWS V14.01,2013-04-21 05:42:00,
2013-04-20 22:47:00,53.6,18.6,29.26,ESE,119,0.0,0.0,25,0.00,,---,0.00,VWS V14.01,2013-04-21 05:47:00,
2013-04-20 22:52:00,53.1,18.2,29.26,ESE,119,0.0,0.0,25,0.00,,---,0.00,VWS V14.01,2013-04-21 05:52:00,
2013-04-20 22:57:00,53.4,18.5,29.26,ESE,119,0.0,0.0,25,0.00,,---,0.00,VWS V14.01,2013-04-21 05:57:00,
2013-04-20 23:02:00,53.6,19.6,29.26,ESE,119,0.0,0.0,26,0.00,,---,0.00,VWS V14.01,2013-04-21 06:02:00,
2013-04-20 23:07:00,52.7,18.8,29.26,ESE,119,0.0,0.0,26,0.00,,---,0.00,VWS V14.01,2013-04-21 06:07:00,
2013-04-20 23:12:00,52.3,18.5,29.26,ESE,119,0.0,0.0,26,0.00,,---,0.00,VWS V14.01,2013-04-21 06:12:00,
2013-04-20 23:17:00,52.9,19.0,29.26,ESE,119,0.0,0.0,26,0.00,,---,0.00,VWS V14.01,2013-04-21 06:17:00,
2013-04-20 23:22:00,52.5,18.6,29.26,ESE,119,0.0,0.0,26,0.00,,---,0.00,VWS V14.01,2013-04-21 06:22:00,
2013-04-20 23:27:00,52.5,18.6,29.26,ESE,119,0.0,0.0,26,0.00,,---,0.00,VWS V14.01,2013-04-21 06:27:00,
2013-04-20 23:32:00,53.2,19.3,29.26,ESE,119,0.0,0.0,26,0.00,,---,0.00,VWS V14.01,2013-04-21 06:32:00,
2013-04-20 23:37:00,53.4,19.4,29.26,ESE,119,0.0,0.0,26,0.00,,---,0.00,VWS V14.01,2013-04-21 06:37:00,
2013-04-20 23:42:00,53.1,19.1,29.26,ESE,119,0.0,0.0,26,0.00,,---,0.00,VWS V14.01,2013-04-21 06:42:00,
2013-04-20 23:47:00,52.5,19.5,29.26,ESE,119,0.0,0.0,27,0.00,,---,0.00,VWS V14.01,2013-04-21 06:47:00,
2013-04-20 23:52:00,51.8,18.9,29.26,ESE,119,0.0,0.0,27,0.00,,---,0.00,VWS V14.01,2013-04-21 06:52:00,
2013-04-20 23:57:00,51.6,18.8,29.26,ESE,119,0.0,0.0,27,0.00,,---,0.00,VWS V14.01,2013-04-21 06:57:00,